Time;durP1;ratioP1;P1;durP2;ratioP2;P2;SDS_P1;SDS_P2;PMS_P1;PMS_P2;Temp;Humidity;BMP_temperature;BMP_pressure;BME280_temperature;BME280_humidity;BME280_pressure;Samples;Min_cycle;Max_cycle;Signal;HPM_P1;HPM_P2
2021/05/24 00:02:16;;;;;;;10.90;10.60;;;11.10;99.90;;;;;;5033859;28;20449;-63
2021/05/24 00:04:43;;;;;;;11.40;10.90;;;11.10;99.90;;;;;;5033614;28;20453;-61
2021/05/24 00:07:09;;;;;;;11.30;10.90;;;11.10;99.90;;;;;;5033524;28;20445;-62
2021/05/24 00:09:36;;;;;;;11.20;10.80;;;11.10;99.90;;;;;;5033915;28;20465;-63
2021/05/24 00:12:04;;;;;;;11.00;10.70;;;11.10;99.90;;;;;;5033855;28;20453;-63
2021/05/24 00:14:32;;;;;;;11.37;10.93;;;11.20;99.90;;;;;;5033886;28;20449;-62
2021/05/24 00:16:58;;;;;;;11.53;11.13;;;11.10;99.90;;;;;;5033584;28;20446;-63
2021/05/24 00:19:24;;;;;;;11.20;10.80;;;11.20;99.90;;;;;;5033685;28;20472;-63
2021/05/24 00:21:51;;;;;;;10.90;10.60;;;11.20;99.90;;;;;;5033694;28;20449;-63
2021/05/24 00:24:17;;;;;;;11.40;10.90;;;11.30;99.90;;;;;;5033680;28;20459;-63
2021/05/24 00:26:43;;;;;;;11.00;10.43;;;11.30;99.90;;;;;;5033198;28;20488;-62
2021/05/24 00:29:14;;;;;;;11.33;10.87;;;11.30;99.90;;;;;;5033419;28;20821;-62
2021/05/24 00:31:40;;;;;;;11.50;10.80;;;11.30;99.90;;;;;;5033465;28;20540;-63
2021/05/24 00:34:07;;;;;;;10.90;10.40;;;11.30;99.90;;;;;;5032365;28;20445;-63
2021/05/24 00:36:33;;;;;;;10.60;10.30;;;11.20;99.90;;;;;;5033539;28;20441;-64
2021/05/24 00:39:00;;;;;;;10.57;10.27;;;11.20;99.90;;;;;;5032828;28;20461;-63
2021/05/24 00:41:26;;;;;;;10.70;10.27;;;11.10;99.90;;;;;;5033500;28;20449;-63
2021/05/24 00:43:53;;;;;;;11.10;10.60;;;11.10;99.90;;;;;;5033319;28;21006;-63
2021/05/24 00:46:19;;;;;;;10.60;10.30;;;11.20;99.90;;;;;;5033155;28;21127;-63
2021/05/24 00:48:46;;;;;;;11.17;10.87;;;11.20;99.90;;;;;;5032863;28;21002;-62
2021/05/24 00:51:12;;;;;;;11.00;10.60;;;11.20;99.90;;;;;;5033118;28;20979;-62
2021/05/24 00:53:38;;;;;;;11.17;10.67;;;11.30;99.90;;;;;;5033033;28;20449;-61
2021/05/24 00:56:05;;;;;;;11.23;10.73;;;11.40;99.90;;;;;;5032957;28;20440;-63
2021/05/24 00:58:32;;;;;;;11.10;10.77;;;11.40;99.90;;;;;;5032879;28;20453;-63
2021/05/24 01:00:58;;;;;;;11.10;10.70;;;11.40;99.90;;;;;;5032738;28;20511;-63
2021/05/24 01:03:25;;;;;;;11.13;10.73;;;11.30;99.90;;;;;;5032991;28;20449;-63
2021/05/24 01:05:51;;;;;;;11.00;10.20;;;11.30;99.90;;;;;;5032755;28;20481;-62
2021/05/24 01:08:17;;;;;;;10.90;10.50;;;11.20;99.90;;;;;;5032585;28;20449;-63
2021/05/24 01:10:44;;;;;;;11.20;10.60;;;11.10;99.90;;;;;;5032741;28;20480;-63
2021/05/24 01:13:13;;;;;;;10.70;10.40;;;11.10;99.90;;;;;;5032730;28;20570;-63
2021/05/24 01:15:40;;;;;;;10.60;10.30;;;11.10;99.90;;;;;;5032622;28;20849;-62
2021/05/24 01:18:07;;;;;;;10.40;10.10;;;11.10;99.90;;;;;;5032414;28;20449;-61
2021/05/24 01:20:34;;;;;;;11.20;10.80;;;11.00;99.90;;;;;;5032485;28;20465;-62
2021/05/24 01:23:08;;;;;;;11.10;10.60;;;11.00;99.90;;;;;;5032458;28;20452;-63
2021/05/24 01:25:36;;;;;;;10.80;10.50;;;11.00;99.90;;;;;;5032477;28;20484;-62
2021/05/24 01:28:04;;;;;;;10.63;10.23;;;11.00;99.90;;;;;;5032198;28;20456;-63
2021/05/24 01:30:31;;;;;;;10.50;10.00;;;11.00;99.90;;;;;;5032120;28;20468;-62
2021/05/24 01:32:58;;;;;;;10.30;10.00;;;10.90;99.90;;;;;;5032569;28;20456;-61
2021/05/24 01:35:24;;;;;;;10.67;10.27;;;10.90;99.90;;;;;;5032254;28;20438;-62
2021/05/24 01:37:50;;;;;;;10.37;9.93;;;10.90;99.90;;;;;;5032038;28;20453;-62
2021/05/24 01:40:19;;;;;;;10.60;10.20;;;10.90;99.90;;;;;;5032023;28;20480;-62
2021/05/24 01:42:46;;;;;;;10.53;10.23;;;10.90;99.90;;;;;;5032147;28;20928;-63
2021/05/24 01:45:14;;;;;;;10.63;10.23;;;10.90;99.90;;;;;;5031819;28;20477;-63
2021/05/24 01:47:42;;;;;;;10.63;10.33;;;10.80;99.90;;;;;;5031958;28;20456;-63
2021/05/24 01:50:10;;;;;;;10.53;10.10;;;10.80;99.90;;;;;;5031923;28;21006;-64
2021/05/24 01:52:36;;;;;;;10.07;9.77;;;10.80;99.90;;;;;;5031949;28;20460;-62
2021/05/24 01:55:04;;;;;;;10.97;10.47;;;10.80;99.90;;;;;;5031911;28;20870;-63
2021/05/24 01:57:31;;;;;;;9.93;9.63;;;10.90;99.90;;;;;;5031797;28;20944;-62
2021/05/24 01:59:57;;;;;;;10.07;9.67;;;10.90;99.90;;;;;;5031851;28;20476;-63
2021/05/24 02:02:23;;;;;;;9.83;9.53;;;10.90;99.90;;;;;;5031877;28;20955;-63
2021/05/24 02:04:49;;;;;;;9.93;9.50;;;10.90;99.90;;;;;;5031725;28;20484;-63
2021/05/24 02:07:16;;;;;;;10.13;9.63;;;10.90;99.90;;;;;;5031561;28;20515;-63
2021/05/24 02:09:43;;;;;;;10.20;9.70;;;10.90;99.90;;;;;;5031530;28;20508;-63
2021/05/24 02:12:09;;;;;;;10.13;9.83;;;11.00;99.90;;;;;;5031710;28;20457;-63
2021/05/24 02:14:36;;;;;;;10.00;9.50;;;11.00;99.90;;;;;;5031611;28;20823;-63
2021/05/24 02:17:02;;;;;;;9.90;9.60;;;11.00;99.90;;;;;;5031510;28;20430;-62
2021/05/24 02:19:29;;;;;;;10.57;9.87;;;11.00;99.90;;;;;;5031498;28;20473;-63
2021/05/24 02:21:55;;;;;;;10.10;9.70;;;11.10;99.90;;;;;;5031498;28;20809;-63
2021/05/24 02:24:21;;;;;;;9.97;9.67;;;11.10;99.90;;;;;;5031566;28;20842;-65
2021/05/24 02:26:47;;;;;;;10.20;9.70;;;11.20;99.90;;;;;;5031516;28;20782;-64
2021/05/24 02:29:14;;;;;;;9.90;9.50;;;11.20;99.90;;;;;;5030976;28;20468;-64
2021/05/24 02:31:41;;;;;;;10.10;9.77;;;11.30;99.90;;;;;;5031536;28;20456;-64
2021/05/24 02:34:08;;;;;;;9.57;9.27;;;11.30;99.90;;;;;;5031375;28;21010;-65
2021/05/24 02:36:36;;;;;;;10.63;9.93;;;11.40;99.90;;;;;;5031374;28;20445;-63
2021/05/24 02:39:05;;;;;;;10.10;9.77;;;11.40;99.90;;;;;;5031017;28;20552;-63
2021/05/24 02:41:32;;;;;;;9.90;9.50;;;11.40;99.90;;;;;;5031363;28;20449;-63
2021/05/24 02:43:58;;;;;;;9.90;9.33;;;11.40;99.90;;;;;;5031430;28;20497;-63
2021/05/24 02:46:24;;;;;;;10.00;9.57;;;11.50;99.90;;;;;;5031157;28;21030;-63
2021/05/24 02:48:51;;;;;;;9.67;9.40;;;11.50;99.90;;;;;;5031229;28;20464;-64
2021/05/24 02:51:17;;;;;;;9.70;9.23;;;11.50;99.90;;;;;;5031210;28;20448;-62
2021/05/24 02:53:43;;;;;;;11.23;10.43;;;11.50;99.90;;;;;;5031112;28;20453;-64
2021/05/24 02:56:10;;;;;;;10.60;10.30;;;11.50;99.90;;;;;;5032022;28;20445;-64
2021/05/24 02:58:36;;;;;;;10.10;9.50;;;11.50;99.90;;;;;;5035144;28;20440;-64
2021/05/24 03:01:02;;;;;;;10.90;10.30;;;11.50;99.90;;;;;;5035002;28;21062;-64
2021/05/24 03:03:30;;;;;;;10.20;9.80;;;11.50;99.90;;;;;;5035028;28;20480;-64
2021/05/24 03:05:57;;;;;;;10.03;9.73;;;11.60;99.90;;;;;;5035026;28;20503;-64
2021/05/24 03:08:23;;;;;;;9.87;9.40;;;11.60;99.90;;;;;;5034801;28;20453;-64
2021/05/24 03:10:49;;;;;;;10.47;10.17;;;11.60;99.90;;;;;;5034997;28;20519;-64
2021/05/24 03:13:16;;;;;;;10.10;9.67;;;11.60;99.90;;;;;;5034889;28;20467;-62
2021/05/24 03:15:42;;;;;;;11.10;10.80;;;11.60;99.90;;;;;;5034898;28;20452;-63
2021/05/24 03:18:08;;;;;;;9.90;9.70;;;11.60;99.90;;;;;;5034694;28;20444;-64
2021/05/24 03:20:34;;;;;;;10.70;10.30;;;11.70;99.90;;;;;;5034719;28;20532;-63
2021/05/24 03:23:01;;;;;;;10.73;10.40;;;11.70;99.90;;;;;;5034975;28;20445;-64
2021/05/24 03:25:28;;;;;;;11.23;10.43;;;11.70;99.90;;;;;;5034524;28;20480;-64
2021/05/24 03:27:54;;;;;;;11.20;10.60;;;11.80;99.90;;;;;;5034545;28;20502;-64
2021/05/24 03:30:20;;;;;;;10.97;10.57;;;11.80;99.90;;;;;;5034518;28;20473;-63
2021/05/24 03:32:47;;;;;;;12.37;11.87;;;11.80;99.90;;;;;;5034694;28;20445;-64
2021/05/24 03:35:14;;;;;;;12.63;11.80;;;11.90;99.90;;;;;;5034501;28;20454;-64
2021/05/24 03:37:40;;;;;;;12.03;11.43;;;11.90;99.90;;;;;;5034353;28;20456;-63
2021/05/24 03:40:09;;;;;;;10.90;10.40;;;11.90;99.90;;;;;;5034266;28;20484;-64
2021/05/24 03:42:36;;;;;;;10.20;9.90;;;11.90;99.90;;;;;;5034423;28;20467;-63
2021/05/24 03:45:05;;;;;;;11.33;10.73;;;12.00;99.90;;;;;;5034265;28;20445;-64
2021/05/24 03:47:31;;;;;;;11.00;10.50;;;12.10;99.90;;;;;;5034192;28;20504;-63
2021/05/24 03:49:57;;;;;;;11.53;11.10;;;12.10;99.90;;;;;;5034073;28;20469;-64
2021/05/24 03:52:24;;;;;;;10.97;10.60;;;12.10;99.90;;;;;;5034122;28;20479;-65
2021/05/24 03:54:50;;;;;;;11.93;11.43;;;12.20;99.90;;;;;;5034251;28;20449;-64
2021/05/24 03:57:17;;;;;;;11.10;10.70;;;12.30;99.90;;;;;;5033944;28;20510;-64
2021/05/24 03:59:44;;;;;;;11.40;11.00;;;12.30;99.90;;;;;;5033978;28;20460;-64
2021/05/24 04:02:10;;;;;;;11.60;11.10;;;12.30;99.90;;;;;;5034026;28;20861;-64
2021/05/24 04:04:37;;;;;;;12.23;11.03;;;12.30;99.90;;;;;;5033966;28;20504;-64
2021/05/24 04:07:05;;;;;;;11.23;10.63;;;12.40;99.90;;;;;;5033349;28;20492;-62
2021/05/24 04:09:31;;;;;;;11.40;11.00;;;12.40;99.90;;;;;;5032881;28;20530;-63
2021/05/24 04:11:57;;;;;;;10.80;10.40;;;12.40;99.90;;;;;;5033837;28;20484;-64
2021/05/24 04:14:25;;;;;;;11.23;10.93;;;12.40;99.90;;;;;;5033730;28;20447;-63
2021/05/24 04:16:51;;;;;;;11.30;10.83;;;12.50;99.90;;;;;;5033857;28;20440;-63
2021/05/24 04:19:17;;;;;;;11.20;10.80;;;12.50;99.90;;;;;;5033295;28;20469;-64
2021/05/24 04:21:45;;;;;;;11.30;10.90;;;12.50;99.90;;;;;;5033621;28;20444;-64
2021/05/24 04:24:12;;;;;;;11.23;10.83;;;12.60;99.90;;;;;;5033687;28;20453;-64
2021/05/24 04:26:39;;;;;;;12.47;11.67;;;12.60;99.90;;;;;;5033509;28;20480;-63
2021/05/24 04:29:06;;;;;;;11.33;10.93;;;12.60;99.90;;;;;;5033380;28;20465;-65
2021/05/24 04:31:34;;;;;;;11.40;10.73;;;12.70;99.90;;;;;;5033299;28;20441;-63
2021/05/24 04:34:00;;;;;;;11.23;10.83;;;12.70;99.90;;;;;;5033557;28;20441;-65
2021/05/24 04:36:26;;;;;;;11.93;11.43;;;12.70;99.90;;;;;;5033204;28;20441;-63
2021/05/24 04:38:52;;;;;;;11.40;11.00;;;12.70;99.90;;;;;;5033064;28;21018;-63
2021/05/24 04:41:19;;;;;;;11.00;10.70;;;12.80;99.90;;;;;;5033199;28;20468;-64
2021/05/24 04:43:45;;;;;;;11.93;11.53;;;12.80;99.90;;;;;;5033166;28;20444;-64
2021/05/24 04:46:11;;;;;;;11.70;11.30;;;12.90;99.90;;;;;;5032987;28;20481;-63
2021/05/24 04:48:38;;;;;;;11.60;11.10;;;13.00;99.90;;;;;;5033086;28;20453;-64
2021/05/24 04:51:05;;;;;;;10.90;10.50;;;13.10;99.90;;;;;;5032958;28;20472;-62
2021/05/24 04:53:32;;;;;;;12.27;11.70;;;13.10;99.90;;;;;;5033058;28;20456;-63
2021/05/24 04:55:58;;;;;;;11.27;10.87;;;13.20;99.90;;;;;;5033151;28;20445;-66
2021/05/24 04:58:24;;;;;;;11.20;10.80;;;13.30;99.90;;;;;;5032808;28;20452;-66
2021/05/24 05:00:51;;;;;;;10.87;10.50;;;13.40;99.90;;;;;;5032818;28;20472;-65
2021/05/24 05:03:17;;;;;;;11.50;11.10;;;13.40;99.90;;;;;;5032973;28;20441;-65
2021/05/24 05:05:44;;;;;;;11.80;10.77;;;13.50;99.90;;;;;;5032781;28;20481;-65
2021/05/24 05:08:10;;;;;;;11.20;10.90;;;13.50;99.90;;;;;;5032486;28;20819;-65
2021/05/24 05:10:36;;;;;;;10.90;10.40;;;13.50;99.90;;;;;;5032757;28;20476;-65
2021/05/24 05:13:03;;;;;;;10.97;10.37;;;13.40;99.90;;;;;;5032644;28;20928;-65
2021/05/24 05:15:29;;;;;;;11.87;11.13;;;13.30;99.90;;;;;;5032660;28;20943;-65
2021/05/24 05:17:55;;;;;;;11.03;10.67;;;13.20;99.90;;;;;;5032544;28;20448;-65
2021/05/24 05:20:22;;;;;;;11.40;10.90;;;13.20;99.90;;;;;;5032028;28;20544;-66
2021/05/24 05:22:49;;;;;;;11.20;10.90;;;13.20;99.90;;;;;;5032637;28;20441;-65
2021/05/24 05:25:16;;;;;;;11.20;10.90;;;13.40;99.90;;;;;;5032312;28;20449;-66
2021/05/24 05:27:42;;;;;;;10.50;10.20;;;13.50;99.90;;;;;;5032397;28;20445;-66
2021/05/24 05:30:10;;;;;;;11.17;10.77;;;13.70;99.90;;;;;;5032304;28;20464;-65
2021/05/24 05:32:36;;;;;;;10.80;10.50;;;13.70;99.90;;;;;;5032455;28;20483;-66
2021/05/24 05:35:03;;;;;;;10.50;10.20;;;13.70;99.90;;;;;;5032220;28;20445;-67
2021/05/24 05:37:30;;;;;;;10.63;10.23;;;13.80;99.90;;;;;;5032079;28;20518;-67
2021/05/24 05:39:58;;;;;;;10.73;10.33;;;13.90;99.90;;;;;;5032395;28;20472;-67
2021/05/24 05:42:24;;;;;;;10.23;9.93;;;13.90;99.90;;;;;;5032162;28;20441;-67
2021/05/24 05:44:52;;;;;;;10.20;9.90;;;13.90;99.90;;;;;;5032126;28;20808;-65
2021/05/24 05:47:18;;;;;;;10.00;9.80;;;14.00;99.90;;;;;;5031684;28;20855;-67
2021/05/24 05:49:48;;;;;;;10.33;10.03;;;14.00;99.90;;;;;;5031949;28;20816;-67
2021/05/24 05:52:17;;;;;;;11.57;11.27;;;14.10;99.90;;;;;;5032052;28;20445;-66
2021/05/24 05:54:44;;;;;;;12.40;12.10;;;14.10;99.90;;;;;;5031908;28;20828;-66
2021/05/24 05:57:11;;;;;;;10.10;9.70;;;14.20;99.90;;;;;;5031990;28;20445;-65
2021/05/24 05:59:37;;;;;;;9.43;9.10;;;14.20;99.70;;;;;;5031785;28;20829;-65
2021/05/24 06:02:03;;;;;;;10.10;9.80;;;14.30;99.50;;;;;;5031800;28;20445;-65
2021/05/24 06:04:30;;;;;;;9.90;9.23;;;14.40;99.60;;;;;;5031779;28;20445;-66
2021/05/24 06:06:56;;;;;;;9.40;8.90;;;14.40;99.40;;;;;;5031730;28;20477;-67
2021/05/24 06:09:22;;;;;;;9.60;9.20;;;14.50;99.00;;;;;;5031428;28;20469;-66
2021/05/24 06:11:51;;;;;;;9.00;8.70;;;14.60;98.80;;;;;;5031545;28;20449;-65
2021/05/24 06:14:19;;;;;;;10.07;9.57;;;14.70;98.60;;;;;;5031812;28;20449;-66
2021/05/24 06:16:46;;;;;;;9.70;9.20;;;14.80;98.50;;;;;;5031542;28;21057;-65
2021/05/24 06:19:13;;;;;;;10.50;10.10;;;14.90;97.70;;;;;;5031465;28;20468;-65
2021/05/24 06:21:39;;;;;;;9.90;9.60;;;14.90;97.30;;;;;;5031637;28;20499;-65
2021/05/24 06:24:06;;;;;;;10.97;10.40;;;15.00;97.30;;;;;;5031535;28;20452;-64
2021/05/24 06:26:32;;;;;;;11.40;11.00;;;15.10;97.00;;;;;;5031539;28;20476;-65
2021/05/24 06:28:58;;;;;;;10.80;10.40;;;15.20;96.60;;;;;;5031467;28;20503;-65
2021/05/24 06:31:25;;;;;;;10.07;9.77;;;15.30;96.20;;;;;;5030670;28;20445;-66
2021/05/24 06:33:52;;;;;;;11.17;10.70;;;15.40;95.70;;;;;;5031472;28;20468;-64
2021/05/24 06:36:18;;;;;;;11.03;10.43;;;15.50;95.80;;;;;;5031581;28;20437;-64
2021/05/24 06:38:44;;;;;;;10.50;10.20;;;15.60;95.40;;;;;;5031134;28;20445;-65
2021/05/24 06:41:10;;;;;;;10.67;10.27;;;15.70;95.30;;;;;;5031186;28;20463;-65
2021/05/24 06:43:36;;;;;;;11.00;10.50;;;15.80;94.80;;;;;;5031425;28;20932;-65
2021/05/24 06:46:03;;;;;;;11.47;11.07;;;15.90;93.90;;;;;;5031318;28;20482;-64
2021/05/24 06:48:30;;;;;;;11.23;10.63;;;16.00;92.80;;;;;;5031097;28;20964;-66
2021/05/24 06:50:56;;;;;;;12.50;11.83;;;16.10;92.60;;;;;;5031176;28;20527;-64
2021/05/24 06:53:22;;;;;;;10.97;10.60;;;16.00;91.70;;;;;;5031210;28;20448;-65
2021/05/24 06:55:48;;;;;;;10.77;10.37;;;16.20;91.00;;;;;;5031485;28;20445;-64
2021/05/24 06:58:14;;;;;;;10.40;10.10;;;16.30;90.70;;;;;;5030825;28;20445;-65
2021/05/24 07:00:41;;;;;;;10.90;10.60;;;16.50;88.80;;;;;;5030992;28;20999;-64
2021/05/24 07:03:07;;;;;;;11.67;11.07;;;16.70;87.30;;;;;;5030902;28;20453;-65
2021/05/24 07:05:34;;;;;;;11.20;10.70;;;16.90;86.00;;;;;;5031016;28;20853;-66
2021/05/24 07:08:01;;;;;;;10.60;10.20;;;17.40;87.00;;;;;;5031084;28;20441;-66
2021/05/24 07:10:27;;;;;;;12.40;11.90;;;17.60;84.70;;;;;;5030845;28;20983;-65
2021/05/24 07:12:53;;;;;;;11.77;11.10;;;18.20;82.90;;;;;;5031293;28;20503;-66
2021/05/24 07:15:19;;;;;;;11.80;11.20;;;18.60;77.00;;;;;;5019768;28;20452;-66
2021/05/24 07:17:46;;;;;;;11.63;11.10;;;18.80;76.10;;;;;;5019651;28;20448;-65
2021/05/24 07:20:13;;;;;;;11.50;11.20;;;18.90;73.70;;;;;;5019514;28;20969;-66
2021/05/24 07:22:40;;;;;;;12.00;11.50;;;19.10;71.60;;;;;;5019460;28;20456;-65
2021/05/24 07:25:07;;;;;;;12.07;11.57;;;19.20;71.10;;;;;;5019273;28;20445;-66
2021/05/24 07:27:34;;;;;;;12.20;11.80;;;19.60;70.50;;;;;;5019407;28;20484;-64
2021/05/24 07:30:00;;;;;;;11.87;11.57;;;19.60;66.20;;;;;;5019585;28;20914;-66
2021/05/24 07:32:26;;;;;;;12.83;11.97;;;19.80;63.80;;;;;;5019328;28;20502;-65
2021/05/24 07:34:52;;;;;;;13.00;12.40;;;20.00;62.80;;;;;;5019381;28;20821;-65
2021/05/24 07:37:18;;;;;;;13.93;13.03;;;19.90;61.10;;;;;;5019129;28;20450;-65
2021/05/24 07:39:45;;;;;;;12.70;12.17;;;20.20;60.30;;;;;;5018924;28;20476;-65
2021/05/24 07:42:11;;;;;;;13.07;12.37;;;20.30;59.20;;;;;;5019745;28;21284;-65
2021/05/24 07:44:38;;;;;;;13.07;12.60;;;20.70;58.80;;;;;;5022797;28;20460;-65
2021/05/24 07:47:06;;;;;;;13.60;13.10;;;20.90;56.40;;;;;;5022578;28;20485;-66
2021/05/24 07:49:32;;;;;;;13.03;12.50;;;21.10;57.00;;;;;;5022389;28;20468;-65
2021/05/24 07:51:58;;;;;;;13.43;12.83;;;21.20;55.60;;;;;;5022668;28;20445;-66
2021/05/24 07:54:25;;;;;;;12.73;12.33;;;21.40;55.00;;;;;;5022884;28;20456;-65
2021/05/24 07:56:52;;;;;;;12.93;12.53;;;21.40;54.70;;;;;;5022498;28;20962;-64
2021/05/24 07:59:19;;;;;;;13.13;12.63;;;21.30;54.10;;;;;;5022382;28;20476;-65
2021/05/24 08:01:45;;;;;;;13.13;12.63;;;21.00;54.10;;;;;;5022543;28;20984;-65
2021/05/24 08:04:11;;;;;;;13.70;13.10;;;20.80;54.00;;;;;;5022553;28;20453;-65
2021/05/24 08:06:37;;;;;;;13.50;13.00;;;20.70;54.10;;;;;;5022276;28;20485;-65
2021/05/24 08:09:05;;;;;;;13.63;12.90;;;20.40;54.00;;;;;;5022129;28;20456;-65
2021/05/24 08:11:31;;;;;;;13.70;13.13;;;20.20;53.80;;;;;;5022090;28;20457;-65
2021/05/24 08:13:58;;;;;;;14.30;13.60;;;20.20;54.60;;;;;;5022286;28;20488;-65
2021/05/24 08:16:25;;;;;;;14.80;14.00;;;20.20;54.40;;;;;;5022065;28;20441;-65
2021/05/24 08:18:51;;;;;;;13.33;12.80;;;20.10;55.10;;;;;;5021805;28;21341;-65
2021/05/24 08:21:18;;;;;;;13.77;13.27;;;20.00;55.60;;;;;;5022187;28;20449;-66
2021/05/24 08:23:45;;;;;;;13.87;13.30;;;19.90;55.70;;;;;;5022215;28;20519;-67
2021/05/24 08:26:11;;;;;;;14.00;13.40;;;19.80;55.50;;;;;;5022141;28;20487;-66
2021/05/24 08:28:38;;;;;;;13.60;13.20;;;19.80;55.80;;;;;;5021641;28;20457;-66
2021/05/24 08:31:06;;;;;;;14.33;13.80;;;19.80;55.60;;;;;;5021650;28;20464;-66
2021/05/24 08:33:32;;;;;;;14.37;13.57;;;20.10;55.80;;;;;;5021971;28;20982;-67
2021/05/24 08:35:59;;;;;;;14.87;14.37;;;20.30;55.70;;;;;;5022056;28;20511;-65
2021/05/24 08:38:25;;;;;;;13.80;13.10;;;20.20;55.20;;;;;;5021568;28;20452;-65
2021/05/24 08:40:52;;;;;;;13.47;13.07;;;20.20;55.40;;;;;;5021928;28;20519;-66
2021/05/24 08:43:18;;;;;;;13.80;13.20;;;20.10;55.60;;;;;;5021938;28;20445;-66
2021/05/24 08:45:45;;;;;;;13.53;13.13;;;20.10;55.60;;;;;;5022771;28;20453;-66
2021/05/24 08:48:13;;;;;;;14.00;13.50;;;20.30;55.30;;;;;;5022793;28;21055;-65
2021/05/24 08:50:40;;;;;;;13.83;13.13;;;20.20;55.30;;;;;;5022392;28;20473;-65
2021/05/24 08:53:08;;;;;;;13.37;12.97;;;20.30;55.00;;;;;;5022898;28;20538;-66
2021/05/24 08:55:34;;;;;;;14.23;13.73;;;20.40;55.40;;;;;;5021833;28;20515;-66
2021/05/24 08:58:01;;;;;;;13.67;13.10;;;20.50;55.10;;;;;;5022556;28;20457;-66
2021/05/24 09:00:27;;;;;;;15.00;14.20;;;20.40;55.30;;;;;;5022659;28;20468;-65
2021/05/24 09:02:56;;;;;;;13.60;13.10;;;20.30;55.30;;;;;;5021955;28;20453;-65
2021/05/24 09:05:28;;;;;;;14.43;13.93;;;20.30;55.60;;;;;;5021451;28;20543;-65
2021/05/24 09:07:56;;;;;;;13.70;12.90;;;20.50;55.40;;;;;;5021420;28;20441;-67
2021/05/24 09:10:25;;;;;;;14.27;13.77;;;20.60;54.80;;;;;;5021346;28;20463;-66
2021/05/24 09:12:52;;;;;;;13.97;13.57;;;20.50;54.40;;;;;;5021112;28;20544;-67
2021/05/24 09:15:20;;;;;;;14.00;13.40;;;20.70;54.50;;;;;;5021229;28;20540;-66
2021/05/24 09:17:48;;;;;;;14.53;14.03;;;20.80;54.40;;;;;;5020756;28;20441;-63
2021/05/24 09:20:32;;;;;;;14.73;14.13;;;21.00;53.00;;;;;;5020776;28;20473;-63
2021/05/24 09:23:24;;;;;;;14.47;13.87;;;20.90;51.70;;;;;;5020792;28;20937;-63
2021/05/24 09:26:00;;;;;;;14.03;13.40;;;21.00;51.90;;;;;;5020521;28;20449;-64
2021/05/24 09:28:41;;;;;;;14.23;13.53;;;21.00;51.70;;;;;;5020594;28;20464;-64
2021/05/24 09:31:12;;;;;;;14.40;13.80;;;20.80;52.00;;;;;;5020910;28;20481;-64
2021/05/24 09:33:40;;;;;;;15.40;14.70;;;20.70;52.40;;;;;;5020703;28;20453;-61
2021/05/24 09:36:07;;;;;;;15.03;14.43;;;20.60;53.00;;;;;;5020692;28;20445;-64
2021/05/24 09:38:36;;;;;;;13.87;13.23;;;20.40;52.80;;;;;;5020440;28;21100;-63
2021/05/24 09:41:03;;;;;;;14.00;13.40;;;20.00;52.60;;;;;;5020410;28;20488;-65
2021/05/24 09:43:30;;;;;;;14.60;14.10;;;19.70;53.30;;;;;;5020545;28;20449;-63
2021/05/24 09:46:14;;;;;;;14.77;14.07;;;19.50;53.30;;;;;;5020546;28;20485;-62
2021/05/24 09:48:42;;;;;;;14.70;14.07;;;19.30;54.90;;;;;;5020394;28;20457;-64
2021/05/24 09:51:10;;;;;;;13.93;13.43;;;19.00;56.50;;;;;;5020169;28;20479;-64
2021/05/24 09:53:37;;;;;;;13.77;13.27;;;18.90;56.90;;;;;;5020633;28;20453;-64
2021/05/24 09:56:09;;;;;;;14.03;13.43;;;19.00;58.70;;;;;;5020203;28;20444;-64
2021/05/24 09:58:35;;;;;;;14.93;14.33;;;18.90;59.00;;;;;;5020160;28;20453;-64
2021/05/24 10:01:16;;;;;;;12.90;12.50;;;18.70;59.70;;;;;;5020114;28;20469;-63
2021/05/24 10:03:44;;;;;;;13.40;12.70;;;18.70;60.20;;;;;;5020210;28;21187;-64
2021/05/24 10:06:11;;;;;;;13.93;13.30;;;18.60;59.90;;;;;;5019995;28;20489;-64
2021/05/24 10:08:37;;;;;;;14.60;14.00;;;18.60;59.90;;;;;;5019875;28;20456;-63
2021/05/24 10:11:04;;;;;;;14.53;13.70;;;18.60;59.20;;;;;;5019957;28;20472;-64
2021/05/24 10:13:31;;;;;;;14.67;13.87;;;18.60;58.80;;;;;;5020186;28;21082;-63
2021/05/24 10:16:01;;;;;;;13.60;12.90;;;18.70;59.70;;;;;;5020003;28;21002;-64
2021/05/24 10:18:29;;;;;;;14.40;13.90;;;18.70;60.10;;;;;;5019697;28;20591;-64
2021/05/24 10:20:57;;;;;;;13.17;12.70;;;18.80;60.30;;;;;;5019810;28;20473;-64
2021/05/24 10:23:26;;;;;;;13.60;12.90;;;18.80;59.80;;;;;;5019679;28;20449;-63
2021/05/24 10:25:53;;;;;;;13.37;12.97;;;18.90;59.70;;;;;;5019704;28;20449;-64
2021/05/24 10:28:21;;;;;;;12.87;12.47;;;18.90;59.10;;;;;;5019587;28;20459;-64
2021/05/24 10:30:48;;;;;;;13.83;13.20;;;19.00;58.90;;;;;;5019296;28;20508;-61
2021/05/24 10:33:15;;;;;;;13.83;13.33;;;19.00;58.50;;;;;;5019649;28;20449;-61
2021/05/24 10:35:42;;;;;;;13.60;13.10;;;19.20;58.90;;;;;;5019785;28;21041;-61
2021/05/24 10:38:22;;;;;;;13.40;12.80;;;19.20;57.60;;;;;;5019471;28;20461;-61
2021/05/24 10:40:50;;;;;;;13.33;12.83;;;19.20;58.00;;;;;;5019578;28;20484;-62
2021/05/24 10:43:18;;;;;;;14.17;13.47;;;19.20;57.30;;;;;;5019573;28;21110;-60
2021/05/24 10:45:45;;;;;;;14.83;14.20;;;19.20;57.10;;;;;;5019478;28;20460;-63
2021/05/24 10:48:18;;;;;;;14.07;13.50;;;19.10;56.60;;;;;;5019529;28;20449;-62
2021/05/24 10:51:04;;;;;;;13.80;13.40;;;19.10;55.90;;;;;;5019741;28;20910;-62
2021/05/24 10:53:32;;;;;;;14.33;13.83;;;19.00;55.00;;;;;;5026784;28;20452;-62
2021/05/24 10:56:02;;;;;;;14.30;13.80;;;18.80;55.50;;;;;;5031322;28;20449;-62
2021/05/24 10:58:40;;;;;;;14.07;13.57;;;18.80;56.00;;;;;;5031100;28;20459;-62
2021/05/24 11:01:07;;;;;;;13.00;12.50;;;18.90;57.70;;;;;;5030351;28;20482;-63
2021/05/24 11:03:33;;;;;;;14.00;13.50;;;19.30;58.50;;;;;;5030143;28;20453;-62
2021/05/24 11:06:11;;;;;;;14.40;13.53;;;19.30;58.80;;;;;;5029876;28;20937;-62
2021/05/24 11:08:41;;;;;;;13.33;12.93;;;19.20;59.40;;;;;;5029773;28;20444;-62
2021/05/24 11:11:24;;;;;;;14.13;13.63;;;19.30;59.50;;;;;;5029956;28;20477;-62
2021/05/24 11:13:57;;;;;;;14.20;13.60;;;19.20;59.10;;;;;;5029903;28;20453;-62
2021/05/24 11:16:24;;;;;;;12.70;12.20;;;19.00;57.90;;;;;;5030051;28;20511;-63
2021/05/24 11:18:51;;;;;;;13.10;12.60;;;19.10;58.90;;;;;;5032972;28;20449;-63
2021/05/24 11:21:27;;;;;;;13.10;12.50;;;19.10;59.10;;;;;;5034773;28;20480;-62
2021/05/24 11:24:21;;;;;;;13.77;13.17;;;18.90;59.80;;;;;;5034656;28;20441;-63
2021/05/24 11:27:05;;;;;;;12.80;12.40;;;18.90;62.40;;;;;;5034655;28;20519;-62
2021/05/24 11:29:31;;;;;;;13.60;12.90;;;18.60;66.20;;;;;;5034329;28;20461;-61
2021/05/24 11:31:57;;;;;;;12.80;12.30;;;18.50;69.10;;;;;;5034541;28;20499;-62
2021/05/24 11:34:35;;;;;;;12.53;12.03;;;18.30;70.50;;;;;;5034500;28;21111;-61
2021/05/24 11:37:04;;;;;;;12.60;12.20;;;18.30;77.40;;;;;;5034522;28;20437;-63
2021/05/24 11:39:32;;;;;;;12.00;11.70;;;18.10;78.40;;;;;;5033993;28;20480;-64
2021/05/24 11:42:04;;;;;;;11.87;11.57;;;17.60;80.70;;;;;;5052156;23;20838;-68
2021/05/24 11:44:35;;;;;;;12.70;12.20;;;17.20;88.50;;;;;;5034668;28;20456;-68
2021/05/24 11:47:03;;;;;;;12.80;12.30;;;17.20;97.60;;;;;;5035237;28;21029;-68
2021/05/24 11:49:35;;;;;;;13.97;13.43;;;16.80;98.50;;;;;;5035136;28;20476;-67
2021/05/24 11:52:02;;;;;;;12.93;12.53;;;16.70;99.90;;;;;;5034785;28;20837;-68
2021/05/24 11:54:28;;;;;;;12.80;12.40;;;16.70;99.90;;;;;;5034842;28;20878;-68
2021/05/24 11:56:56;;;;;;;13.20;12.80;;;16.50;99.90;;;;;;5034178;28;20444;-67
2021/05/24 11:59:25;;;;;;;13.90;13.40;;;16.50;99.90;;;;;;5033675;28;20456;-68
2021/05/24 12:01:53;;;;;;;12.70;12.27;;;16.50;99.90;;;;;;5033905;28;20465;-68
2021/05/24 12:04:20;;;;;;;13.60;12.97;;;16.40;99.90;;;;;;5034147;28;20441;-68
2021/05/24 12:06:50;;;;;;;13.20;12.70;;;16.20;99.90;;;;;;5033858;28;20527;-68
2021/05/24 12:09:33;;;;;;;12.10;11.80;;;16.20;99.90;;;;;;5033789;28;20452;-67
2021/05/24 12:12:00;;;;;;;12.80;12.30;;;16.00;99.90;;;;;;5033784;28;20463;-67
2021/05/24 12:14:27;;;;;;;13.07;12.13;;;15.80;99.90;;;;;;5034283;28;20441;-68
2021/05/24 12:16:54;;;;;;;12.80;12.30;;;15.70;99.90;;;;;;5033778;28;20433;-67
2021/05/24 12:19:24;;;;;;;12.60;12.20;;;15.80;99.90;;;;;;5033459;28;20441;-68
2021/05/24 12:21:50;;;;;;;12.30;11.80;;;15.90;99.90;;;;;;5033528;28;20552;-68
2021/05/24 12:24:18;;;;;;;12.40;12.00;;;15.80;99.90;;;;;;5033566;28;20449;-67
2021/05/24 12:26:50;;;;;;;11.60;10.93;;;15.80;99.90;;;;;;5033537;28;20484;-67
2021/05/24 12:29:24;;;;;;;11.30;10.90;;;15.80;99.90;;;;;;5032039;28;20866;-67
2021/05/24 12:31:55;;;;;;;11.67;11.27;;;15.70;99.90;;;;;;5033343;28;21057;-67